sensor_id;sensor_type;location;lat;lon;timestamp;temperature;humidity
80230;DHT22;69540;42.136;24.742;2023-07-29T00:01:27;30.20;25.80
80230;DHT22;69540;42.136;24.742;2023-07-29T00:03:52;30.30;26.60
80230;DHT22;69540;42.136;24.742;2023-07-29T00:06:18;30.20;25.80
80230;DHT22;69540;42.136;24.742;2023-07-29T00:08:44;30.30;25.80
80230;DHT22;69540;42.136;24.742;2023-07-29T00:11:09;30.20;25.80
80230;DHT22;69540;42.136;24.742;2023-07-29T00:13:35;30.20;25.80
80230;DHT22;69540;42.136;24.742;2023-07-29T00:16:00;30.20;25.80
80230;DHT22;69540;42.136;24.742;2023-07-29T00:18:26;30.20;25.80
80230;DHT22;69540;42.136;24.742;2023-07-29T00:20:53;30.30;25.80
80230;DHT22;69540;42.136;24.742;2023-07-29T00:23:18;30.30;25.80
80230;DHT22;69540;42.136;24.742;2023-07-29T00:25:44;30.30;25.80
80230;DHT22;69540;42.136;24.742;2023-07-29T00:28:12;30.20;25.80
80230;DHT22;69540;42.136;24.742;2023-07-29T00:30:37;30.20;25.80
80230;DHT22;69540;42.136;24.742;2023-07-29T00:33:03;30.30;25.80
80230;DHT22;69540;42.136;24.742;2023-07-29T00:35:29;30.30;25.90
80230;DHT22;69540;42.136;24.742;2023-07-29T00:37:54;30.20;25.80
80230;DHT22;69540;42.136;24.742;2023-07-29T00:40:21;30.30;25.90
80230;DHT22;69540;42.136;24.742;2023-07-29T00:42:48;30.20;25.80
80230;DHT22;69540;42.136;24.742;2023-07-29T00:45:14;30.20;25.90
80230;DHT22;69540;42.136;24.742;2023-07-29T00:47:39;30.20;25.90
80230;DHT22;69540;42.136;24.742;2023-07-29T00:50:07;30.30;25.90
80230;DHT22;69540;42.136;24.742;2023-07-29T00:52:34;30.30;25.90
80230;DHT22;69540;42.136;24.742;2023-07-29T00:55:00;30.30;25.90
80230;DHT22;69540;42.136;24.742;2023-07-29T00:57:26;30.30;25.90
80230;DHT22;69540;42.136;24.742;2023-07-29T00:59:54;30.20;25.80
80230;DHT22;69540;42.136;24.742;2023-07-29T01:02:19;30.30;25.90
80230;DHT22;69540;42.136;24.742;2023-07-29T01:04:45;30.30;25.90
80230;DHT22;69540;42.136;24.742;2023-07-29T01:10:03;30.30;25.90
80230;DHT22;69540;42.136;24.742;2023-07-29T01:12:49;30.30;25.90
80230;DHT22;69540;42.136;24.742;2023-07-29T01:15:22;30.20;25.90
80230;DHT22;69540;42.136;24.742;2023-07-29T01:18:04;30.30;25.90
80230;DHT22;69540;42.136;24.742;2023-07-29T01:20:33;30.30;25.90
80230;DHT22;69540;42.136;24.742;2023-07-29T01:23:01;30.20;25.90
80230;DHT22;69540;42.136;24.742;2023-07-29T01:25:26;30.30;25.90
80230;DHT22;69540;42.136;24.742;2023-07-29T01:27:52;30.20;25.90
80230;DHT22;69540;42.136;24.742;2023-07-29T01:30:19;30.30;25.90
80230;DHT22;69540;42.136;24.742;2023-07-29T01:32:54;30.30;26.00
80230;DHT22;69540;42.136;24.742;2023-07-29T01:35:39;30.30;25.90
80230;DHT22;69540;42.136;24.742;2023-07-29T01:38:12;30.30;25.90
80230;DHT22;69540;42.136;24.742;2023-07-29T01:40:40;30.30;26.00
80230;DHT22;69540;42.136;24.742;2023-07-29T01:43:06;30.20;25.90
80230;DHT22;69540;42.136;24.742;2023-07-29T01:45:34;30.20;25.90
80230;DHT22;69540;42.136;24.742;2023-07-29T01:48:07;30.20;25.90
80230;DHT22;69540;42.136;24.742;2023-07-29T01:50:33;30.20;26.80
80230;DHT22;69540;42.136;24.742;2023-07-29T01:52:59;30.30;25.90
80230;DHT22;69540;42.136;24.742;2023-07-29T01:55:25;30.30;26.00
80230;DHT22;69540;42.136;24.742;2023-07-29T01:57:50;30.30;26.00
80230;DHT22;69540;42.136;24.742;2023-07-29T02:00:19;30.30;26.00
80230;DHT22;69540;42.136;24.742;2023-07-29T02:02:45;30.20;25.90
80230;DHT22;69540;42.136;24.742;2023-07-29T02:05:11;30.30;26.00
80230;DHT22;69540;42.136;24.742;2023-07-29T02:07:36;30.20;25.90
80230;DHT22;69540;42.136;24.742;2023-07-29T02:10:02;30.30;26.00
80230;DHT22;69540;42.136;24.742;2023-07-29T02:12:28;30.30;26.00
80230;DHT22;69540;42.136;24.742;2023-07-29T02:14:54;30.30;26.00
80230;DHT22;69540;42.136;24.742;2023-07-29T02:17:19;30.30;25.90
80230;DHT22;69540;42.136;24.742;2023-07-29T02:19:45;30.30;26.00
80230;DHT22;69540;42.136;24.742;2023-07-29T02:22:13;30.30;26.00
80230;DHT22;69540;42.136;24.742;2023-07-29T02:24:39;30.30;26.00
80230;DHT22;69540;42.136;24.742;2023-07-29T02:27:06;30.30;26.00
80230;DHT22;69540;42.136;24.742;2023-07-29T02:29:31;30.30;26.00
80230;DHT22;69540;42.136;24.742;2023-07-29T02:31:59;30.30;26.00
80230;DHT22;69540;42.136;24.742;2023-07-29T02:34:24;30.30;26.00
80230;DHT22;69540;42.136;24.742;2023-07-29T02:36:50;30.30;26.00
80230;DHT22;69540;42.136;24.742;2023-07-29T02:39:16;30.30;26.00
80230;DHT22;69540;42.136;24.742;2023-07-29T02:41:42;30.30;26.00
80230;DHT22;69540;42.136;24.742;2023-07-29T02:44:07;30.30;26.00
80230;DHT22;69540;42.136;24.742;2023-07-29T02:46:33;30.30;26.00
80230;DHT22;69540;42.136;24.742;2023-07-29T02:48:59;30.30;26.00
80230;DHT22;69540;42.136;24.742;2023-07-29T02:51:24;30.30;26.00
80230;DHT22;69540;42.136;24.742;2023-07-29T02:53:50;30.30;26.00
80230;DHT22;69540;42.136;24.742;2023-07-29T02:56:16;30.30;26.10
80230;DHT22;69540;42.136;24.742;2023-07-29T02:58:41;30.30;26.10
80230;DHT22;69540;42.136;24.742;2023-07-29T03:01:07;30.30;26.00
80230;DHT22;69540;42.136;24.742;2023-07-29T03:03:33;30.30;26.10
80230;DHT22;69540;42.136;24.742;2023-07-29T03:06:03;30.30;26.00
80230;DHT22;69540;42.136;24.742;2023-07-29T03:08:29;30.30;26.00
80230;DHT22;69540;42.136;24.742;2023-07-29T03:10:56;30.30;26.00
80230;DHT22;69540;42.136;24.742;2023-07-29T03:13:22;30.30;26.10
80230;DHT22;69540;42.136;24.742;2023-07-29T03:15:48;30.30;26.00
80230;DHT22;69540;42.136;24.742;2023-07-29T03:18:14;30.30;26.10
80230;DHT22;69540;42.136;24.742;2023-07-29T03:20:40;30.30;26.10
80230;DHT22;69540;42.136;24.742;2023-07-29T03:23:05;30.30;26.90
80230;DHT22;69540;42.136;24.742;2023-07-29T03:25:32;30.30;26.00
80230;DHT22;69540;42.136;24.742;2023-07-29T03:27:57;30.30;26.10
80230;DHT22;69540;42.136;24.742;2023-07-29T03:30:23;30.30;26.10
80230;DHT22;69540;42.136;24.742;2023-07-29T03:32:49;30.30;26.10
80230;DHT22;69540;42.136;24.742;2023-07-29T03:35:15;30.30;26.00
80230;DHT22;69540;42.136;24.742;2023-07-29T03:37:41;30.30;26.10
80230;DHT22;69540;42.136;24.742;2023-07-29T03:40:07;30.30;26.00
80230;DHT22;69540;42.136;24.742;2023-07-29T03:42:35;30.30;26.10
80230;DHT22;69540;42.136;24.742;2023-07-29T03:45:00;30.30;26.10
80230;DHT22;69540;42.136;24.742;2023-07-29T03:47:26;30.30;26.10
80230;DHT22;69540;42.136;24.742;2023-07-29T03:49:52;30.30;26.10
80230;DHT22;69540;42.136;24.742;2023-07-29T03:52:18;30.30;26.00
80230;DHT22;69540;42.136;24.742;2023-07-29T03:54:44;30.30;26.10
80230;DHT22;69540;42.136;24.742;2023-07-29T03:57:09;30.30;26.10
80230;DHT22;69540;42.136;24.742;2023-07-29T03:59:35;30.30;26.10
80230;DHT22;69540;42.136;24.742;2023-07-29T04:02:01;30.30;26.10
80230;DHT22;69540;42.136;24.742;2023-07-29T04:04:26;30.30;26.10
80230;DHT22;69540;42.136;24.742;2023-07-29T04:06:52;30.30;26.10
80230;DHT22;69540;42.136;24.742;2023-07-29T04:09:18;30.30;26.10
80230;DHT22;69540;42.136;24.742;2023-07-29T04:11:43;30.30;26.10
80230;DHT22;69540;42.136;24.742;2023-07-29T04:14:09;30.30;26.10
80230;DHT22;69540;42.136;24.742;2023-07-29T04:16:34;30.30;26.10
80230;DHT22;69540;42.136;24.742;2023-07-29T04:19:00;30.30;26.10
80230;DHT22;69540;42.136;24.742;2023-07-29T04:21:26;30.30;26.10
80230;DHT22;69540;42.136;24.742;2023-07-29T04:23:51;30.30;26.10
80230;DHT22;69540;42.136;24.742;2023-07-29T04:26:17;30.30;26.10
80230;DHT22;69540;42.136;24.742;2023-07-29T04:28:43;30.30;26.10
80230;DHT22;69540;42.136;24.742;2023-07-29T04:31:08;30.30;26.10
80230;DHT22;69540;42.136;24.742;2023-07-29T04:33:34;30.30;26.10
80230;DHT22;69540;42.136;24.742;2023-07-29T04:36:00;30.30;26.10
80230;DHT22;69540;42.136;24.742;2023-07-29T04:38:31;30.30;26.10
80230;DHT22;69540;42.136;24.742;2023-07-29T04:40:58;30.30;26.10
80230;DHT22;69540;42.136;24.742;2023-07-29T04:43:27;30.30;26.10
80230;DHT22;69540;42.136;24.742;2023-07-29T04:45:53;30.30;27.00
80230;DHT22;69540;42.136;24.742;2023-07-29T04:48:19;30.30;26.10
80230;DHT22;69540;42.136;24.742;2023-07-29T04:50:45;30.30;26.20
80230;DHT22;69540;42.136;24.742;2023-07-29T04:53:10;30.30;26.10
80230;DHT22;69540;42.136;24.742;2023-07-29T04:55:36;30.40;26.20
80230;DHT22;69540;42.136;24.742;2023-07-29T04:58:02;30.30;26.20
80230;DHT22;69540;42.136;24.742;2023-07-29T05:00:27;30.30;26.20
80230;DHT22;69540;42.136;24.742;2023-07-29T05:02:53;30.30;26.20
80230;DHT22;69540;42.136;24.742;2023-07-29T05:05:19;30.30;26.20
80230;DHT22;69540;42.136;24.742;2023-07-29T05:07:44;30.30;26.20
80230;DHT22;69540;42.136;24.742;2023-07-29T05:10:10;30.30;26.10
80230;DHT22;69540;42.136;24.742;2023-07-29T05:12:36;30.30;26.20
80230;DHT22;69540;42.136;24.742;2023-07-29T05:15:02;30.30;26.20
80230;DHT22;69540;42.136;24.742;2023-07-29T05:17:28;30.30;26.20
80230;DHT22;69540;42.136;24.742;2023-07-29T05:19:53;30.30;26.20
80230;DHT22;69540;42.136;24.742;2023-07-29T05:22:19;30.30;26.10
80230;DHT22;69540;42.136;24.742;2023-07-29T05:24:45;30.30;26.20
80230;DHT22;69540;42.136;24.742;2023-07-29T05:27:10;30.40;26.20
80230;DHT22;69540;42.136;24.742;2023-07-29T05:29:36;30.30;26.20
80230;DHT22;69540;42.136;24.742;2023-07-29T05:32:02;30.40;26.20
80230;DHT22;69540;42.136;24.742;2023-07-29T05:34:27;30.30;26.20
80230;DHT22;69540;42.136;24.742;2023-07-29T05:36:53;30.30;26.20
80230;DHT22;69540;42.136;24.742;2023-07-29T05:39:18;30.30;26.20
80230;DHT22;69540;42.136;24.742;2023-07-29T05:41:44;30.30;26.20
80230;DHT22;69540;42.136;24.742;2023-07-29T05:44:11;30.30;26.20
80230;DHT22;69540;42.136;24.742;2023-07-29T05:46:36;30.30;26.20
80230;DHT22;69540;42.136;24.742;2023-07-29T05:49:02;30.30;26.20
80230;DHT22;69540;42.136;24.742;2023-07-29T05:51:28;30.30;26.20
80230;DHT22;69540;42.136;24.742;2023-07-29T05:53:53;30.40;26.20
80230;DHT22;69540;42.136;24.742;2023-07-29T05:56:19;30.30;26.20
80230;DHT22;69540;42.136;24.742;2023-07-29T05:58:44;30.40;26.30
80230;DHT22;69540;42.136;24.742;2023-07-29T06:01:10;30.30;26.20
80230;DHT22;69540;42.136;24.742;2023-07-29T06:03:36;30.30;26.20
80230;DHT22;69540;42.136;24.742;2023-07-29T06:06:01;30.30;26.20
80230;DHT22;69540;42.136;24.742;2023-07-29T06:08:27;30.30;26.20
80230;DHT22;69540;42.136;24.742;2023-07-29T06:10:54;30.30;26.20
80230;DHT22;69540;42.136;24.742;2023-07-29T06:13:20;30.40;27.10
80230;DHT22;69540;42.136;24.742;2023-07-29T06:15:45;30.30;26.20
80230;DHT22;69540;42.136;24.742;2023-07-29T06:18:11;30.40;26.20
80230;DHT22;69540;42.136;24.742;2023-07-29T06:20:37;30.30;26.20
80230;DHT22;69540;42.136;24.742;2023-07-29T06:23:03;30.40;26.30
80230;DHT22;69540;42.136;24.742;2023-07-29T06:25:28;30.30;26.20
80230;DHT22;69540;42.136;24.742;2023-07-29T06:27:54;30.40;26.30
80230;DHT22;69540;42.136;24.742;2023-07-29T06:30:20;30.30;26.20
80230;DHT22;69540;42.136;24.742;2023-07-29T06:32:45;30.40;26.30
80230;DHT22;69540;42.136;24.742;2023-07-29T06:35:11;30.30;26.20
80230;DHT22;69540;42.136;24.742;2023-07-29T06:37:36;30.40;26.30
80230;DHT22;69540;42.136;24.742;2023-07-29T06:40:02;30.40;26.30
80230;DHT22;69540;42.136;24.742;2023-07-29T06:42:28;30.40;26.20
80230;DHT22;69540;42.136;24.742;2023-07-29T06:44:54;30.30;26.20
80230;DHT22;69540;42.136;24.742;2023-07-29T06:47:20;30.40;26.30
80230;DHT22;69540;42.136;24.742;2023-07-29T06:49:46;30.30;26.20
80230;DHT22;69540;42.136;24.742;2023-07-29T06:52:11;30.40;27.10
80230;DHT22;69540;42.136;24.742;2023-07-29T06:54:37;30.40;26.20
80230;DHT22;69540;42.136;24.742;2023-07-29T06:57:02;30.40;26.20
80230;DHT22;69540;42.136;24.742;2023-07-29T06:59:28;30.40;26.30
80230;DHT22;69540;42.136;24.742;2023-07-29T07:01:54;30.40;26.30
80230;DHT22;69540;42.136;24.742;2023-07-29T07:04:19;30.40;26.30
80230;DHT22;69540;42.136;24.742;2023-07-29T07:06:45;30.40;26.30
80230;DHT22;69540;42.136;24.742;2023-07-29T07:09:11;30.40;26.30
80230;DHT22;69540;42.136;24.742;2023-07-29T07:11:37;30.40;26.30
80230;DHT22;69540;42.136;24.742;2023-07-29T07:14:02;30.40;26.30
80230;DHT22;69540;42.136;24.742;2023-07-29T07:16:28;30.40;26.30
80230;DHT22;69540;42.136;24.742;2023-07-29T07:18:56;30.40;26.20
80230;DHT22;69540;42.136;24.742;2023-07-29T07:21:22;30.40;26.30
80230;DHT22;69540;42.136;24.742;2023-07-29T07:23:49;30.40;26.20
80230;DHT22;69540;42.136;24.742;2023-07-29T07:26:15;30.40;26.20
80230;DHT22;69540;42.136;24.742;2023-07-29T07:28:41;30.40;26.20
80230;DHT22;69540;42.136;24.742;2023-07-29T07:31:06;30.40;26.20
80230;DHT22;69540;42.136;24.742;2023-07-29T07:33:32;30.40;26.20
80230;DHT22;69540;42.136;24.742;2023-07-29T07:35:57;30.40;26.20
80230;DHT22;69540;42.136;24.742;2023-07-29T07:38:23;30.40;26.30
80230;DHT22;69540;42.136;24.742;2023-07-29T07:40:53;30.40;26.20
80230;DHT22;69540;42.136;24.742;2023-07-29T07:43:20;30.40;26.20
80230;DHT22;69540;42.136;24.742;2023-07-29T07:45:46;30.40;26.30
80230;DHT22;69540;42.136;24.742;2023-07-29T07:48:11;30.40;26.20
80230;DHT22;69540;42.136;24.742;2023-07-29T07:50:38;30.40;26.20
80230;DHT22;69540;42.136;24.742;2023-07-29T07:53:04;30.40;26.20
80230;DHT22;69540;42.136;24.742;2023-07-29T07:55:30;30.40;26.20
80230;DHT22;69540;42.136;24.742;2023-07-29T07:57:55;30.40;26.20
80230;DHT22;69540;42.136;24.742;2023-07-29T08:00:21;30.40;26.20
80230;DHT22;69540;42.136;24.742;2023-07-29T08:02:46;30.40;26.20
80230;DHT22;69540;42.136;24.742;2023-07-29T08:05:12;30.40;26.20
80230;DHT22;69540;42.136;24.742;2023-07-29T08:07:38;30.40;26.20
80230;DHT22;69540;42.136;24.742;2023-07-29T08:10:04;30.40;26.20
80230;DHT22;69540;42.136;24.742;2023-07-29T08:12:30;30.40;26.20
80230;DHT22;69540;42.136;24.742;2023-07-29T08:14:55;30.40;26.20
80230;DHT22;69540;42.136;24.742;2023-07-29T08:17:21;30.40;26.20
80230;DHT22;69540;42.136;24.742;2023-07-29T08:19:47;30.40;26.10
80230;DHT22;69540;42.136;24.742;2023-07-29T08:22:12;30.40;26.10
80230;DHT22;69540;42.136;24.742;2023-07-29T08:24:38;30.40;26.20
80230;DHT22;69540;42.136;24.742;2023-07-29T08:27:04;30.40;26.10
80230;DHT22;69540;42.136;24.742;2023-07-29T08:29:29;30.50;26.20
80230;DHT22;69540;42.136;24.742;2023-07-29T08:31:55;30.50;26.20
80230;DHT22;69540;42.136;24.742;2023-07-29T08:34:21;30.50;26.10
80230;DHT22;69540;42.136;24.742;2023-07-29T08:36:46;30.40;26.10
80230;DHT22;69540;42.136;24.742;2023-07-29T08:39:12;30.50;26.10
80230;DHT22;69540;42.136;24.742;2023-07-29T08:41:47;30.50;26.10
80230;DHT22;69540;42.136;24.742;2023-07-29T08:44:21;30.50;26.10
80230;DHT22;69540;42.136;24.742;2023-07-29T08:46:51;30.50;26.10
80230;DHT22;69540;42.136;24.742;2023-07-29T08:49:19;30.50;26.10
80230;DHT22;69540;42.136;24.742;2023-07-29T08:51:46;30.40;26.10
80230;DHT22;69540;42.136;24.742;2023-07-29T08:54:13;30.50;26.10
80230;DHT22;69540;42.136;24.742;2023-07-29T08:56:41;30.50;26.20
80230;DHT22;69540;42.136;24.742;2023-07-29T08:59:08;30.50;26.10
80230;DHT22;69540;42.136;24.742;2023-07-29T09:01:34;30.50;26.20
80230;DHT22;69540;42.136;24.742;2023-07-29T09:03:59;30.40;26.10
80230;DHT22;69540;42.136;24.742;2023-07-29T09:06:26;30.40;26.10
80230;DHT22;69540;42.136;24.742;2023-07-29T09:08:54;30.50;26.10
80230;DHT22;69540;42.136;24.742;2023-07-29T09:11:21;30.50;26.10
80230;DHT22;69540;42.136;24.742;2023-07-29T09:13:47;30.50;26.10
80230;DHT22;69540;42.136;24.742;2023-07-29T09:16:13;30.50;26.20
80230;DHT22;69540;42.136;24.742;2023-07-29T09:18:39;30.50;26.10
80230;DHT22;69540;42.136;24.742;2023-07-29T09:21:05;30.50;26.10
80230;DHT22;69540;42.136;24.742;2023-07-29T09:23:41;30.50;26.10
80230;DHT22;69540;42.136;24.742;2023-07-29T09:26:07;30.50;26.10
80230;DHT22;69540;42.136;24.742;2023-07-29T09:28:40;30.50;26.10
80230;DHT22;69540;42.136;24.742;2023-07-29T09:31:06;30.50;26.10
80230;DHT22;69540;42.136;24.742;2023-07-29T09:33:35;30.50;26.10
80230;DHT22;69540;42.136;24.742;2023-07-29T09:36:14;30.50;26.10
80230;DHT22;69540;42.136;24.742;2023-07-29T09:38:39;30.50;26.10
80230;DHT22;69540;42.136;24.742;2023-07-29T09:41:05;30.50;26.10
80230;DHT22;69540;42.136;24.742;2023-07-29T09:43:35;30.50;26.10
80230;DHT22;69540;42.136;24.742;2023-07-29T09:46:02;30.40;26.10
80230;DHT22;69540;42.136;24.742;2023-07-29T09:48:27;30.50;26.10
80230;DHT22;69540;42.136;24.742;2023-07-29T09:50:56;30.50;26.10
80230;DHT22;69540;42.136;24.742;2023-07-29T09:53:21;30.50;26.10
80230;DHT22;69540;42.136;24.742;2023-07-29T09:55:48;30.50;26.10
80230;DHT22;69540;42.136;24.742;2023-07-29T09:58:26;30.50;26.10
80230;DHT22;69540;42.136;24.742;2023-07-29T10:00:52;30.50;26.10
80230;DHT22;69540;42.136;24.742;2023-07-29T10:03:20;30.50;26.10
80230;DHT22;69540;42.136;24.742;2023-07-29T10:05:46;30.50;26.10
80230;DHT22;69540;42.136;24.742;2023-07-29T10:08:13;30.50;26.10
80230;DHT22;69540;42.136;24.742;2023-07-29T10:10:40;30.50;26.10
80230;DHT22;69540;42.136;24.742;2023-07-29T10:13:07;30.50;26.10
80230;DHT22;69540;42.136;24.742;2023-07-29T10:15:33;30.50;26.10
80230;DHT22;69540;42.136;24.742;2023-07-29T10:17:59;30.50;26.10
80230;DHT22;69540;42.136;24.742;2023-07-29T10:20:26;30.50;26.10
80230;DHT22;69540;42.136;24.742;2023-07-29T10:22:56;30.50;26.10
80230;DHT22;69540;42.136;24.742;2023-07-29T10:25:25;30.50;26.10
80230;DHT22;69540;42.136;24.742;2023-07-29T10:27:56;30.50;26.10
80230;DHT22;69540;42.136;24.742;2023-07-29T10:30:22;30.50;26.10
80230;DHT22;69540;42.136;24.742;2023-07-29T10:32:50;30.50;26.10
80230;DHT22;69540;42.136;24.742;2023-07-29T10:35:17;30.50;26.10
80230;DHT22;69540;42.136;24.742;2023-07-29T10:37:43;30.50;26.10
80230;DHT22;69540;42.136;24.742;2023-07-29T10:40:10;30.50;26.10
80230;DHT22;69540;42.136;24.742;2023-07-29T10:42:38;30.50;26.10
80230;DHT22;69540;42.136;24.742;2023-07-29T10:45:20;30.50;26.10
80230;DHT22;69540;42.136;24.742;2023-07-29T10:47:47;30.50;26.10
80230;DHT22;69540;42.136;24.742;2023-07-29T10:50:20;30.50;26.10
80230;DHT22;69540;42.136;24.742;2023-07-29T10:52:51;30.50;26.10
80230;DHT22;69540;42.136;24.742;2023-07-29T10:55:34;30.50;26.10
80230;DHT22;69540;42.136;24.742;2023-07-29T10:58:13;30.50;26.00
80230;DHT22;69540;42.136;24.742;2023-07-29T11:00:41;30.50;26.00
80230;DHT22;69540;42.136;24.742;2023-07-29T11:03:07;30.50;26.00
80230;DHT22;69540;42.136;24.742;2023-07-29T11:05:50;30.50;26.10
80230;DHT22;69540;42.136;24.742;2023-07-29T11:08:27;30.50;26.10
80230;DHT22;69540;42.136;24.742;2023-07-29T11:11:05;30.50;26.10
80230;DHT22;69540;42.136;24.742;2023-07-29T11:13:32;30.50;26.10
80230;DHT22;69540;42.136;24.742;2023-07-29T11:15:59;30.50;26.10
80230;DHT22;69540;42.136;24.742;2023-07-29T11:18:29;30.50;26.00
80230;DHT22;69540;42.136;24.742;2023-07-29T11:20:56;30.50;26.10
80230;DHT22;69540;42.136;24.742;2023-07-29T11:23:28;30.50;26.10
80230;DHT22;69540;42.136;24.742;2023-07-29T11:25:54;30.50;26.00
80230;DHT22;69540;42.136;24.742;2023-07-29T11:28:20;30.50;26.00
80230;DHT22;69540;42.136;24.742;2023-07-29T11:30:47;30.50;26.00
80230;DHT22;69540;42.136;24.742;2023-07-29T11:33:13;30.50;26.00
80230;DHT22;69540;42.136;24.742;2023-07-29T11:35:39;30.50;26.00
80230;DHT22;69540;42.136;24.742;2023-07-29T11:38:04;30.50;26.00
80230;DHT22;69540;42.136;24.742;2023-07-29T11:40:30;30.50;26.00
80230;DHT22;69540;42.136;24.742;2023-07-29T11:42:56;30.50;26.00
80230;DHT22;69540;42.136;24.742;2023-07-29T11:45:22;30.50;26.00
80230;DHT22;69540;42.136;24.742;2023-07-29T11:47:48;30.50;26.00
80230;DHT22;69540;42.136;24.742;2023-07-29T11:50:15;30.50;26.00
80230;DHT22;69540;42.136;24.742;2023-07-29T11:52:45;30.50;26.40
80230;DHT22;69540;42.136;24.742;2023-07-29T11:55:13;30.50;26.00
80230;DHT22;69540;42.136;24.742;2023-07-29T11:57:39;30.50;26.00
80230;DHT22;69540;42.136;24.742;2023-07-29T12:00:08;30.50;26.00
80230;DHT22;69540;42.136;24.742;2023-07-29T12:02:40;30.50;26.00
80230;DHT22;69540;42.136;24.742;2023-07-29T12:05:08;30.50;26.00
80230;DHT22;69540;42.136;24.742;2023-07-29T12:07:37;30.50;26.10
80230;DHT22;69540;42.136;24.742;2023-07-29T12:10:04;30.50;26.00
80230;DHT22;69540;42.136;24.742;2023-07-29T12:12:29;30.60;26.10
80230;DHT22;69540;42.136;24.742;2023-07-29T12:14:55;30.50;26.00
80230;DHT22;69540;42.136;24.742;2023-07-29T12:17:21;30.50;26.00
80230;DHT22;69540;42.136;24.742;2023-07-29T12:19:46;30.60;26.10
80230;DHT22;69540;42.136;24.742;2023-07-29T12:22:17;30.50;26.00
80230;DHT22;69540;42.136;24.742;2023-07-29T12:24:43;30.50;26.00
80230;DHT22;69540;42.136;24.742;2023-07-29T12:27:12;30.50;26.00
80230;DHT22;69540;42.136;24.742;2023-07-29T12:29:42;30.50;26.10
80230;DHT22;69540;42.136;24.742;2023-07-29T12:32:08;30.50;26.00
80230;DHT22;69540;42.136;24.742;2023-07-29T12:34:36;30.60;26.10
80230;DHT22;69540;42.136;24.742;2023-07-29T12:37:03;30.50;26.00
80230;DHT22;69540;42.136;24.742;2023-07-29T12:39:31;30.60;26.00
80230;DHT22;69540;42.136;24.742;2023-07-29T12:41:59;30.50;26.00
80230;DHT22;69540;42.136;24.742;2023-07-29T12:44:26;30.60;26.10
80230;DHT22;69540;42.136;24.742;2023-07-29T12:46:52;30.60;26.00
80230;DHT22;69540;42.136;24.742;2023-07-29T12:49:18;30.60;26.00
80230;DHT22;69540;42.136;24.742;2023-07-29T12:51:44;30.60;26.00
80230;DHT22;69540;42.136;24.742;2023-07-29T12:54:10;30.60;26.00
80230;DHT22;69540;42.136;24.742;2023-07-29T12:56:35;30.60;26.10
80230;DHT22;69540;42.136;24.742;2023-07-29T12:59:01;30.60;26.00
80230;DHT22;69540;42.136;24.742;2023-07-29T13:01:27;30.60;26.00
80230;DHT22;69540;42.136;24.742;2023-07-29T13:03:54;30.60;26.10
80230;DHT22;69540;42.136;24.742;2023-07-29T13:06:20;30.60;26.00
80230;DHT22;69540;42.136;24.742;2023-07-29T13:08:46;30.60;26.00
80230;DHT22;69540;42.136;24.742;2023-07-29T13:11:12;30.60;26.00
80230;DHT22;69540;42.136;24.742;2023-07-29T13:13:38;30.60;26.00
80230;DHT22;69540;42.136;24.742;2023-07-29T13:16:04;30.60;26.00
80230;DHT22;69540;42.136;24.742;2023-07-29T13:18:31;30.60;26.00
80230;DHT22;69540;42.136;24.742;2023-07-29T13:20:57;30.60;26.00
80230;DHT22;69540;42.136;24.742;2023-07-29T13:23:22;30.60;26.00
80230;DHT22;69540;42.136;24.742;2023-07-29T13:25:48;30.60;25.90
80230;DHT22;69540;42.136;24.742;2023-07-29T13:28:15;30.60;26.00
80230;DHT22;69540;42.136;24.742;2023-07-29T13:30:41;30.60;25.90
80230;DHT22;69540;42.136;24.742;2023-07-29T13:33:07;30.60;25.90
80230;DHT22;69540;42.136;24.742;2023-07-29T13:35:33;30.70;26.00
80230;DHT22;69540;42.136;24.742;2023-07-29T13:37:59;30.70;25.90
80230;DHT22;69540;42.136;24.742;2023-07-29T13:40:25;30.70;26.00
80230;DHT22;69540;42.136;24.742;2023-07-29T13:42:50;30.70;26.00
80230;DHT22;69540;42.136;24.742;2023-07-29T13:45:17;30.70;25.90
80230;DHT22;69540;42.136;24.742;2023-07-29T13:47:43;30.80;26.00
80230;DHT22;69540;42.136;24.742;2023-07-29T13:50:09;30.80;26.00
80230;DHT22;69540;42.136;24.742;2023-07-29T13:52:36;30.70;25.90
80230;DHT22;69540;42.136;24.742;2023-07-29T13:55:02;30.80;26.00
80230;DHT22;69540;42.136;24.742;2023-07-29T13:57:28;30.80;25.90
80230;DHT22;69540;42.136;24.742;2023-07-29T13:59:53;30.80;25.90
80230;DHT22;69540;42.136;24.742;2023-07-29T14:02:19;30.80;25.90
80230;DHT22;69540;42.136;24.742;2023-07-29T14:04:44;30.80;25.90
80230;DHT22;69540;42.136;24.742;2023-07-29T14:07:10;30.80;25.90
80230;DHT22;69540;42.136;24.742;2023-07-29T14:09:36;30.80;25.90
80230;DHT22;69540;42.136;24.742;2023-07-29T14:12:02;30.80;25.90
80230;DHT22;69540;42.136;24.742;2023-07-29T14:14:28;30.80;25.90
80230;DHT22;69540;42.136;24.742;2023-07-29T14:16:54;30.80;25.90
80230;DHT22;69540;42.136;24.742;2023-07-29T14:19:20;30.80;25.90
80230;DHT22;69540;42.136;24.742;2023-07-29T14:21:46;30.90;25.90
80230;DHT22;69540;42.136;24.742;2023-07-29T14:24:11;30.80;25.80
80230;DHT22;69540;42.136;24.742;2023-07-29T14:26:37;30.90;25.90
80230;DHT22;69540;42.136;24.742;2023-07-29T14:29:03;30.90;25.80
80230;DHT22;69540;42.136;24.742;2023-07-29T14:31:28;30.90;25.80
80230;DHT22;69540;42.136;24.742;2023-07-29T14:33:54;30.90;25.80
80230;DHT22;69540;42.136;24.742;2023-07-29T14:36:19;30.90;25.80
80230;DHT22;69540;42.136;24.742;2023-07-29T14:38:45;31.00;25.80
80230;DHT22;69540;42.136;24.742;2023-07-29T14:41:11;30.90;25.80
80230;DHT22;69540;42.136;24.742;2023-07-29T14:43:36;31.00;25.90
80230;DHT22;69540;42.136;24.742;2023-07-29T14:46:02;31.00;25.80
80230;DHT22;69540;42.136;24.742;2023-07-29T14:48:29;31.00;25.90
80230;DHT22;69540;42.136;24.742;2023-07-29T14:50:54;31.00;25.90
80230;DHT22;69540;42.136;24.742;2023-07-29T14:53:20;30.90;25.80
80230;DHT22;69540;42.136;24.742;2023-07-29T14:55:46;31.00;25.90
80230;DHT22;69540;42.136;24.742;2023-07-29T14:58:12;31.00;25.90
80230;DHT22;69540;42.136;24.742;2023-07-29T15:00:37;30.90;25.80
80230;DHT22;69540;42.136;24.742;2023-07-29T15:03:03;31.00;25.90
80230;DHT22;69540;42.136;24.742;2023-07-29T15:05:28;31.00;25.90
80230;DHT22;69540;42.136;24.742;2023-07-29T15:07:54;31.00;25.90
80230;DHT22;69540;42.136;24.742;2023-07-29T15:10:20;30.90;25.80
80230;DHT22;69540;42.136;24.742;2023-07-29T15:12:47;30.90;25.80
80230;DHT22;69540;42.136;24.742;2023-07-29T15:15:12;30.90;25.80